Terminal Aerodrome Forecast
Issued by NWS

Home | Current Version | Previous Version | Text Only | Print | Product List | Glossary On
Versions: 1 2 3 4 5 6 7 8 9 10 11 12 13 14 15 16 17 18 19 20 21 22 23 24 25 26 27 28 29 30 31
000
FTUS42 KJAX 261100
TAFVQQ
TAF
KVQQ 261120Z 2612/2712 05003KT P6SM SKC
      TEMPO 2612/2613 3SM BR
     FM261700 04006KT P6SM SCT035 BKN250
     FM270000 00000KT P6SM SCT035 BKN250
     FM270600 00000KT 3SM BR BKN025=

USA.gov is the U.S. government's official web portal to all federal, state and local government web resources and services.